Time;durP1;ratioP1;P1;durP2;ratioP2;P2;SDS_P1;SDS_P2;PMS_P1;PMS_P2;Temp;Humidity;BMP_temperature;BMP_pressure;BME280_temperature;BME280_humidity;BME280_pressure;Samples;Min_cycle;Max_cycle;Signal;HPM_P1;HPM_P2
2021/09/17 00:00:08;;;;;;;4.72;4.00;;;15.10;99.90;;;14.88;100.00;101390.66;4133105;28;20186;-71
2021/09/17 00:02:09;;;;;;;8.68;5.22;;;15.10;99.90;;;14.87;100.00;101385.53;4147859;28;20082;-72
2021/09/17 00:04:10;;;;;;;4.13;3.72;;;15.10;99.90;;;14.84;100.00;101384.00;4127339;28;20037;-72
2021/09/17 00:06:11;;;;;;;5.10;4.60;;;15.10;99.90;;;14.83;100.00;101382.38;4146728;28;20026;-72
2021/09/17 00:08:12;;;;;;;4.82;4.32;;;15.00;99.90;;;14.82;100.00;101393.16;4135698;28;20022;-72
2021/09/17 00:10:13;;;;;;;6.10;5.35;;;15.00;99.90;;;14.77;100.00;101382.19;4153382;28;20073;-72
2021/09/17 00:12:14;;;;;;;7.57;5.80;;;15.00;99.90;;;14.74;100.00;101377.22;4151879;28;20036;-72
2021/09/17 00:14:16;;;;;;;5.60;4.97;;;15.00;99.90;;;14.75;100.00;101378.91;4151880;28;20116;-71
2021/09/17 00:16:17;;;;;;;5.88;5.13;;;15.00;99.90;;;14.70;100.00;101389.16;4151925;28;20021;-72
2021/09/17 00:18:18;;;;;;;5.72;5.15;;;14.90;99.90;;;14.73;100.00;101370.25;4152020;28;20033;-72
2021/09/17 00:20:19;;;;;;;6.95;5.40;;;14.90;99.90;;;14.70;100.00;101375.88;4135530;28;20034;-71
2021/09/17 00:22:20;;;;;;;6.60;5.35;;;14.90;99.90;;;14.55;100.00;101361.63;4152993;28;20057;-72
2021/09/17 00:24:22;;;;;;;6.00;5.18;;;14.90;99.90;;;14.47;100.00;101365.13;4152970;28;20033;-72
2021/09/17 00:26:23;;;;;;;7.82;5.50;;;14.80;99.90;;;14.50;100.00;101358.66;4152587;28;20036;-72
2021/09/17 00:28:24;;;;;;;7.70;5.00;;;14.80;99.90;;;14.51;100.00;101357.66;4134729;28;20064;-72
2021/09/17 00:30:28;;;;;;;6.45;5.03;;;14.70;99.90;;;14.56;100.00;101368.59;4151651;28;20172;-72
2021/09/17 00:32:28;;;;;;;;;;;14.80;99.90;;;14.44;100.00;101354.84;4152109;28;20390;-72
2021/09/17 00:34:29;;;;;;;7.07;4.70;;;14.80;99.90;;;14.47;100.00;101359.81;4153017;28;19916;-71
2021/09/17 00:36:31;;;;;;;6.75;4.88;;;14.70;99.90;;;14.47;100.00;101357.16;4151704;28;20417;-71
2021/09/17 00:38:32;;;;;;;6.35;5.10;;;14.70;99.90;;;14.49;100.00;101355.16;4151574;28;20028;-71
2021/09/17 00:40:33;;;;;;;6.15;5.32;;;14.70;99.90;;;14.48;100.00;101358.00;4151531;28;20466;-72
2021/09/17 00:42:35;;;;;;;5.65;4.88;;;14.70;99.90;;;14.38;100.00;101355.50;4148200;28;20034;-71
2021/09/17 00:44:36;;;;;;;6.13;5.45;;;14.70;99.90;;;14.34;100.00;101349.69;4136792;28;20455;-71
2021/09/17 00:46:37;;;;;;;6.20;5.30;;;14.70;99.90;;;14.36;100.00;101360.16;4136415;28;20058;-71
2021/09/17 00:48:38;;;;;;;6.65;5.93;;;14.60;99.90;;;14.40;100.00;101354.34;4135222;28;20100;-71
2021/09/17 00:50:39;;;;;;;6.22;5.63;;;14.60;99.90;;;14.39;100.00;101342.03;4135264;28;20490;-72
2021/09/17 00:52:42;;;;;;;7.13;6.00;;;14.60;99.90;;;14.47;100.00;101333.28;4125425;28;20035;-71
2021/09/17 00:54:43;;;;;;;6.25;5.35;;;14.60;99.90;;;14.50;100.00;101335.59;4135185;28;20034;-72
2021/09/17 00:56:45;;;;;;;7.88;6.20;;;14.60;99.90;;;14.40;100.00;101337.56;4131754;28;20104;-72
2021/09/17 00:58:46;;;;;;;6.05;5.40;;;14.60;99.90;;;14.30;100.00;101340.38;4147953;28;20089;-72
2021/09/17 01:00:47;;;;;;;6.18;5.38;;;14.60;99.90;;;14.29;100.00;101335.22;4141568;28;20037;-72
2021/09/17 01:02:48;;;;;;;8.45;6.13;;;14.60;99.90;;;14.21;100.00;101327.28;4151335;28;20453;-71
2021/09/17 01:04:49;;;;;;;6.40;5.40;;;14.50;99.90;;;14.14;100.00;101336.88;4151276;28;20083;-71
2021/09/17 01:06:50;;;;;;;8.05;5.97;;;14.40;99.90;;;14.10;100.00;101336.38;4151377;28;20513;-72
2021/09/17 01:08:51;;;;;;;6.60;5.07;;;14.40;99.90;;;14.08;100.00;101330.41;4152524;28;20040;-72
2021/09/17 01:10:52;;;;;;;8.27;6.32;;;14.40;99.90;;;14.09;100.00;101333.91;4151283;28;20030;-71
2021/09/17 01:12:54;;;;;;;6.10;5.20;;;14.30;99.90;;;13.99;100.00;101320.78;4134623;28;20072;-72
2021/09/17 01:14:56;;;;;;;5.50;5.00;;;14.30;99.90;;;14.02;100.00;101312.50;4151029;28;20037;-71
2021/09/17 01:16:57;;;;;;;6.45;5.75;;;14.30;99.90;;;14.04;100.00;101315.81;4151202;28;20030;-71
2021/09/17 01:18:59;;;;;;;5.90;5.30;;;14.40;99.90;;;14.04;100.00;101315.81;4151229;28;20478;-72
2021/09/17 01:21:02;;;;;;;6.47;5.45;;;14.30;99.90;;;14.06;100.00;101305.88;4151141;28;20474;-71
2021/09/17 01:23:03;;;;;;;7.57;4.93;;;14.30;99.90;;;14.13;100.00;101308.69;4151986;28;20092;-71
2021/09/17 01:25:10;;;;;;;5.50;4.90;;;14.30;99.90;;;14.07;100.00;101304.03;4151121;28;20536;-72
2021/09/17 01:27:12;;;;;;;5.22;4.75;;;14.30;99.90;;;14.04;100.00;101307.84;4124502;28;20023;-72
2021/09/17 01:29:13;;;;;;;9.10;5.88;;;14.20;99.90;;;13.93;100.00;101302.03;4134687;28;20030;-71
2021/09/17 01:31:14;;;;;;;8.27;5.90;;;14.20;99.90;;;13.94;100.00;101301.88;4134681;28;20517;-71
2021/09/17 01:33:15;;;;;;;5.80;5.20;;;14.20;99.90;;;13.99;100.00;101299.56;4134760;28;20552;-71
2021/09/17 01:35:20;;;;;;;9.77;5.57;;;14.20;99.90;;;13.96;100.00;101296.41;4134766;28;20030;-71
2021/09/17 01:37:21;;;;;;;7.70;5.68;;;14.20;99.90;;;13.92;100.00;101293.25;4134721;28;20074;-71
2021/09/17 01:39:22;;;;;;;7.65;5.22;;;14.20;99.90;;;13.83;100.00;101299.53;4135571;28;20034;-72
2021/09/17 01:41:23;;;;;;;5.78;5.18;;;14.10;99.90;;;13.76;100.00;101287.94;4141351;28;20026;-71
2021/09/17 01:43:24;;;;;;;5.55;4.70;;;14.10;99.90;;;13.81;100.00;101293.56;4140800;28;20027;-71
2021/09/17 01:45:25;;;;;;;7.70;5.25;;;14.10;99.90;;;13.75;100.00;101279.16;4134724;28;20113;-72
2021/09/17 01:47:26;;;;;;;5.63;5.05;;;14.10;99.90;;;13.85;100.00;101286.94;4134744;28;20030;-71
2021/09/17 01:49:27;;;;;;;6.05;5.05;;;14.10;99.90;;;13.94;100.00;101285.13;4134585;28;20034;-71
2021/09/17 01:51:28;;;;;;;7.65;5.25;;;14.10;99.90;;;13.87;100.00;101287.59;4127692;28;20102;-71
2021/09/17 01:53:29;;;;;;;6.07;4.97;;;14.10;99.90;;;13.89;100.00;101284.81;4135665;28;20030;-72
2021/09/17 01:55:30;;;;;;;5.88;4.55;;;14.10;99.90;;;13.69;100.00;101285.09;4134179;28;20042;-71
2021/09/17 01:57:31;;;;;;;7.85;5.65;;;14.00;99.90;;;13.61;100.00;101273.66;4135546;28;20490;-71
2021/09/17 01:59:33;;;;;;;9.82;6.47;;;14.00;99.90;;;13.61;100.00;101271.00;4135678;28;20037;-71
2021/09/17 02:01:34;;;;;;;6.13;5.15;;;13.90;99.90;;;13.64;100.00;101270.69;4134347;28;20057;-71
2021/09/17 02:03:35;;;;;;;6.38;5.35;;;13.90;99.90;;;13.68;100.00;101272.81;4135493;28;20022;-71
2021/09/17 02:05:36;;;;;;;5.75;4.57;;;13.90;99.90;;;13.62;100.00;101264.72;4134529;28;20712;-72
2021/09/17 02:07:37;;;;;;;5.55;4.95;;;13.90;99.90;;;13.70;100.00;101272.69;4135644;28;20031;-71
2021/09/17 02:09:38;;;;;;;5.88;4.72;;;13.90;99.90;;;13.71;100.00;101274.31;4134398;28;20026;-71
2021/09/17 02:11:40;;;;;;;5.53;4.97;;;13.90;99.90;;;13.68;100.00;101272.81;4135443;28;20034;-71
2021/09/17 02:13:41;;;;;;;6.35;4.53;;;13.90;99.90;;;13.70;100.00;101264.72;4134283;28;20089;-71
2021/09/17 02:15:42;;;;;;;7.97;5.25;;;13.90;99.90;;;13.63;100.00;101256.59;4126993;28;20085;-71
2021/09/17 02:17:43;;;;;;;8.50;5.80;;;13.90;99.90;;;13.67;100.00;101265.03;4145984;28;20576;-71
2021/09/17 02:19:44;;;;;;;6.38;4.82;;;13.90;99.90;;;13.68;100.00;101262.22;4150392;28;20041;-71
2021/09/17 02:21:49;;;;;;;7.25;5.28;;;13.90;99.90;;;13.74;100.00;101268.69;4145668;28;20473;-71
2021/09/17 02:23:50;;;;;;;6.70;5.53;;;14.00;99.90;;;13.79;100.00;101253.13;4118663;28;20114;-71
2021/09/17 02:25:51;;;;;;;6.43;5.20;;;13.90;99.90;;;13.79;100.00;101258.44;4134283;28;20022;-71
2021/09/17 02:27:52;;;;;;;6.57;5.40;;;13.90;99.90;;;13.71;100.00;101250.44;4133884;28;20760;-71
2021/09/17 02:29:53;;;;;;;7.85;5.38;;;13.90;99.90;;;13.70;100.00;101254.94;4134346;28;20022;-71
2021/09/17 02:31:54;;;;;;;5.38;4.70;;;13.90;99.90;;;13.67;100.00;101251.78;4134325;28;20033;-71
2021/09/17 02:33:55;;;;;;;6.40;5.75;;;13.90;99.90;;;13.68;100.00;101256.06;4118085;28;20046;-71
2021/09/17 02:35:56;;;;;;;6.53;5.55;;;13.80;99.90;;;13.63;100.00;101242.50;4133937;28;20085;-72
2021/09/17 02:37:57;;;;;;;5.93;4.25;;;13.90;99.90;;;13.62;100.00;101246.97;4134234;28;20497;-71
2021/09/17 02:39:58;;;;;;;7.97;6.00;;;13.80;99.90;;;13.63;100.00;101238.03;4125982;28;20113;-71
2021/09/17 02:41:59;;;;;;;6.35;5.28;;;13.80;99.90;;;13.58;100.00;101234.22;4161714;28;20540;-71
2021/09/17 02:44:01;;;;;;;5.47;4.90;;;13.80;99.90;;;13.55;100.00;101239.84;4135612;28;20022;-72
2021/09/17 02:46:02;;;;;;;5.28;4.38;;;13.80;99.90;;;13.47;100.00;101231.88;4134001;28;20534;-71
2021/09/17 02:48:04;;;;;;;4.68;4.15;;;13.80;99.90;;;13.40;100.00;101237.00;4134255;28;20394;-71
2021/09/17 02:50:05;;;;;;;5.75;3.90;;;13.70;99.90;;;13.39;100.00;101229.19;4134561;28;20082;-71
2021/09/17 02:52:07;;;;;;;5.28;4.57;;;13.70;99.90;;;13.49;100.00;101230.72;4136959;28;20565;-71
2021/09/17 02:54:08;;;;;;;6.95;4.65;;;13.70;99.90;;;13.50;100.00;101228.91;4137023;28;20026;-71
2021/09/17 02:56:08;;;;;;;4.95;4.45;;;13.70;99.90;;;13.61;100.00;101223.28;4128861;28;20117;-71
2021/09/17 02:58:09;;;;;;;4.53;3.85;;;13.80;99.90;;;13.55;99.81;101214.16;4136580;28;20045;-73
2021/09/17 03:00:11;;;;;;;6.45;4.45;;;13.80;99.90;;;13.51;99.62;101212.81;4136704;28;20038;-73
2021/09/17 03:02:13;;;;;;;6.63;4.82;;;13.70;99.90;;;13.61;99.45;101218.81;4136818;28;20030;-72
2021/09/17 03:04:14;;;;;;;7.45;4.50;;;13.80;99.90;;;13.65;98.73;101216.66;4136887;28;20093;-72
2021/09/17 03:06:15;;;;;;;10.23;6.03;;;13.80;99.90;;;13.71;98.44;101213.34;4136830;28;20018;-72
2021/09/17 03:08:16;;;;;;;7.00;5.45;;;13.80;99.90;;;13.66;98.41;101210.34;4136654;28;20109;-72
2021/09/17 03:10:16;;;;;;;7.15;5.90;;;13.80;99.90;;;13.58;98.94;101208.53;4136827;28;20117;-72
2021/09/17 03:12:17;;;;;;;8.43;6.38;;;13.80;99.90;;;13.59;99.17;101199.56;4127733;28;20071;-72
2021/09/17 03:14:18;;;;;;;9.57;6.32;;;13.80;99.90;;;13.56;99.04;101191.94;4131103;28;20039;-72
2021/09/17 03:16:19;;;;;;;9.75;7.00;;;13.80;99.90;;;13.55;99.18;101197.44;4152865;28;20112;-72
2021/09/17 03:18:20;;;;;;;9.10;6.38;;;13.80;99.90;;;13.54;99.86;101201.06;4154211;28;20034;-72
2021/09/17 03:20:22;;;;;;;9.55;5.97;;;13.80;99.90;;;13.40;100.00;101191.94;4152753;28;20034;-72
2021/09/17 03:22:22;;;;;;;7.25;5.93;;;13.70;99.90;;;13.35;100.00;101185.47;4152795;28;20033;-71
2021/09/17 03:24:23;;;;;;;6.57;5.88;;;13.70;99.90;;;13.26;100.00;101185.44;4152725;28;20033;-72
2021/09/17 03:26:24;;;;;;;9.00;6.20;;;13.60;99.90;;;13.25;100.00;101181.16;4154051;28;20030;-72
2021/09/17 03:28:26;;;;;;;9.75;6.80;;;13.60;99.90;;;13.26;100.00;101177.50;4152676;28;20026;-71
2021/09/17 03:30:27;;;;;;;7.85;6.03;;;13.60;99.90;;;13.29;100.00;101181.63;4126342;28;20023;-71
2021/09/17 03:32:28;;;;;;;8.73;6.35;;;13.50;99.90;;;13.19;100.00;101176.50;4137614;28;20030;-71
2021/09/17 03:34:29;;;;;;;9.85;6.05;;;13.50;99.90;;;13.30;99.95;101184.13;4123899;28;20037;-71
2021/09/17 03:36:30;;;;;;;8.57;6.15;;;13.50;99.90;;;13.32;99.54;101181.31;4136548;28;20030;-71
2021/09/17 03:38:31;;;;;;;7.45;4.85;;;13.50;99.90;;;13.25;99.28;101164.44;4137605;28;20038;-71
2021/09/17 03:40:34;;;;;;;6.22;5.03;;;13.50;99.90;;;13.11;99.41;101165.88;4133189;28;20103;-71
2021/09/17 03:42:35;;;;;;;8.68;5.85;;;13.40;99.90;;;13.01;99.64;101156.41;4148913;28;20026;-71
2021/09/17 03:44:36;;;;;;;7.00;5.70;;;13.40;99.90;;;13.01;99.76;101161.69;4136517;28;20034;-71
2021/09/17 03:46:37;;;;;;;6.72;6.03;;;13.30;99.90;;;12.99;100.00;101153.88;4136214;28;20050;-71
2021/09/17 03:48:38;;;;;;;8.13;5.93;;;13.30;99.90;;;13.05;99.49;101155.09;4136185;28;20087;-71
2021/09/17 03:50:40;;;;;;;8.63;5.93;;;13.30;99.90;;;13.07;98.70;101156.59;4136239;28;20034;-71
2021/09/17 03:52:41;;;;;;;8.98;6.25;;;13.30;99.90;;;13.02;98.86;101144.81;4136204;28;20034;-71
2021/09/17 03:54:42;;;;;;;6.90;6.05;;;13.30;99.90;;;12.98;99.47;101149.59;4137260;28;20054;-71
2021/09/17 03:56:43;;;;;;;6.63;5.65;;;13.20;99.90;;;12.92;98.96;101150.25;4137192;28;20030;-73
2021/09/17 03:58:44;;;;;;;6.10;5.50;;;13.20;99.90;;;12.97;99.21;101155.88;4135453;28;20042;-71
2021/09/17 04:00:45;;;;;;;8.18;6.03;;;13.20;99.90;;;12.97;99.26;101150.59;4135661;28;20031;-72
2021/09/17 04:02:46;;;;;;;7.35;5.57;;;13.20;99.90;;;12.89;99.63;101142.63;4135809;28;20042;-71
2021/09/17 04:04:47;;;;;;;6.75;5.97;;;13.20;99.90;;;12.73;99.46;101153.97;4137147;28;20101;-71
2021/09/17 04:06:48;;;;;;;5.82;5.22;;;13.10;99.90;;;12.55;100.00;101139.19;4136958;28;20034;-72
2021/09/17 04:08:49;;;;;;;6.30;4.95;;;13.00;99.90;;;12.56;100.00;101138.19;4135805;28;20085;-72
2021/09/17 04:10:50;;;;;;;4.90;4.45;;;13.00;99.90;;;12.50;100.00;101134.38;4135941;28;20094;-72
2021/09/17 04:12:50;;;;;;;5.28;4.78;;;12.90;99.90;;;12.52;100.00;101129.75;4135685;28;20018;-71
2021/09/17 04:14:51;;;;;;;5.65;5.07;;;13.00;99.90;;;12.63;100.00;101141.88;4136834;28;20117;-71
2021/09/17 04:16:53;;;;;;;5.50;5.00;;;12.90;99.90;;;12.71;100.00;101139.25;4136972;28;20049;-71
2021/09/17 04:18:54;;;;;;;6.35;4.70;;;13.00;99.90;;;12.72;100.00;101146.22;4135631;28;20038;-71
2021/09/17 04:20:55;;;;;;;5.43;4.40;;;13.00;99.90;;;12.64;100.00;101139.06;4135704;28;20061;-71
2021/09/17 04:22:56;;;;;;;6.45;4.90;;;12.90;99.90;;;12.55;100.00;101125.94;4135575;28;20030;-72
2021/09/17 04:24:56;;;;;;;5.28;4.78;;;12.90;99.90;;;12.55;100.00;101140.00;4135511;28;20030;-71
2021/09/17 04:26:57;;;;;;;5.50;4.53;;;12.90;99.90;;;12.58;100.00;101133.56;4135299;28;20050;-72
2021/09/17 04:28:58;;;;;;;5.03;4.53;;;12.90;99.90;;;12.59;100.00;101132.59;4130925;28;20015;-72
2021/09/17 04:30:59;;;;;;;5.57;4.55;;;12.90;99.90;;;12.64;100.00;101131.13;4119276;28;20057;-71
2021/09/17 04:33:00;;;;;;;5.72;4.72;;;12.90;99.90;;;12.66;100.00;101130.97;4135322;28;20057;-71
2021/09/17 04:35:03;;;;;;;5.20;4.25;;;12.90;99.90;;;12.70;100.00;101132.28;4127075;28;20088;-72
2021/09/17 04:37:05;;;;;;;5.93;4.43;;;12.90;99.90;;;12.61;100.00;101133.25;4146981;28;20501;-72
2021/09/17 04:39:06;;;;;;;6.60;4.93;;;12.90;99.90;;;12.54;100.00;101129.59;4136612;28;20048;-71
2021/09/17 04:41:07;;;;;;;6.80;5.07;;;12.90;99.90;;;12.59;100.00;101132.59;4139970;28;20082;-71
2021/09/17 04:43:08;;;;;;;5.88;5.13;;;12.90;99.90;;;12.62;100.00;101126.97;4144731;28;20081;-71
2021/09/17 04:45:10;;;;;;;7.22;5.53;;;12.90;99.90;;;12.64;100.00;101127.63;4135380;28;20034;-71
2021/09/17 04:47:11;;;;;;;7.70;5.00;;;13.00;99.90;;;12.65;100.00;101126.66;4134828;28;20045;-71
2021/09/17 04:49:12;;;;;;;8.25;5.57;;;12.90;99.90;;;12.69;100.00;101120.88;4135254;28;20018;-72
2021/09/17 04:51:13;;;;;;;6.57;5.85;;;13.00;99.90;;;12.70;100.00;101125.19;4135186;28;20085;-71
2021/09/17 04:53:14;;;;;;;7.40;5.28;;;13.00;99.90;;;12.59;100.00;101130.78;4129516;28;20092;-71
2021/09/17 04:55:16;;;;;;;6.13;5.18;;;12.90;99.90;;;12.43;100.00;101124.56;4118747;28;20182;-71
2021/09/17 04:57:18;;;;;;;5.93;4.50;;;12.90;99.90;;;12.33;100.00;101121.22;4151055;28;20029;-71
2021/09/17 04:59:19;;;;;;;5.43;4.57;;;12.80;99.90;;;12.39;100.00;101129.38;4135107;28;20041;-72
2021/09/17 05:01:20;;;;;;;6.50;5.82;;;12.80;99.90;;;12.42;100.00;101112.34;4136219;28;20032;-72
2021/09/17 05:03:22;;;;;;;10.77;6.68;;;12.80;99.90;;;12.55;100.00;101125.94;4136080;28;20090;-71
2021/09/17 05:05:24;;;;;;;7.35;6.10;;;12.90;99.90;;;12.59;100.00;101119.34;4135077;28;20486;-71
2021/09/17 05:07:25;;;;;;;6.63;5.53;;;12.90;99.90;;;12.69;100.00;101122.72;4134961;28;20113;-71
2021/09/17 05:09:26;;;;;;;10.07;6.18;;;13.00;99.90;;;12.73;100.00;101111.63;4134878;28;20522;-71
2021/09/17 05:11:28;;;;;;;8.13;6.22;;;13.00;99.90;;;12.84;100.00;101112.34;4134780;28;20023;-71
2021/09/17 05:13:29;;;;;;;10.20;6.60;;;13.00;99.90;;;12.89;100.00;101110.84;4134178;28;20030;-71
2021/09/17 05:15:30;;;;;;;6.82;5.63;;;13.10;99.90;;;12.96;100.00;101114.50;4136058;28;20026;-71
2021/09/17 05:17:31;;;;;;;8.38;6.30;;;13.10;99.90;;;12.94;100.00;101108.53;4135922;28;20061;-71
2021/09/17 05:19:32;;;;;;;9.52;6.50;;;13.10;99.90;;;12.95;100.00;101112.03;4134580;28;20026;-71
2021/09/17 05:21:33;;;;;;;12.68;7.30;;;13.20;99.90;;;12.90;100.00;101107.22;4134771;28;20530;-71
2021/09/17 05:23:34;;;;;;;9.45;6.53;;;13.20;99.90;;;12.93;100.00;101111.38;4134661;28;20026;-71
2021/09/17 05:25:35;;;;;;;9.15;6.35;;;13.20;99.90;;;12.97;100.00;101102.91;4135853;28;20022;-71
2021/09/17 05:27:38;;;;;;;8.35;6.03;;;13.20;99.90;;;13.04;100.00;101105.75;4134343;28;20061;-71
2021/09/17 05:29:39;;;;;;;10.05;7.35;;;13.30;99.90;;;13.03;100.00;101102.28;4122250;28;20034;-71
2021/09/17 05:31:40;;;;;;;11.95;7.68;;;13.40;99.90;;;13.06;100.00;101104.59;4135922;28;20493;-71
2021/09/17 05:33:41;;;;;;;11.02;6.80;;;13.40;99.90;;;13.13;100.00;101118.06;4134641;28;20026;-71
2021/09/17 05:35:42;;;;;;;8.00;6.82;;;13.40;99.90;;;13.12;100.00;101113.72;4134422;28;20031;-71
2021/09/17 05:37:43;;;;;;;13.85;8.15;;;13.40;99.90;;;13.11;100.00;101110.25;4134678;28;20022;-71
2021/09/17 05:39:44;;;;;;;7.60;6.53;;;13.40;99.90;;;13.16;100.00;101110.59;4125276;28;20038;-71
2021/09/17 05:41:45;;;;;;;11.02;7.40;;;13.40;99.90;;;13.18;100.00;101105.97;4144791;28;20084;-72
2021/09/17 05:43:46;;;;;;;6.88;5.13;;;13.50;99.90;;;13.20;100.00;101113.75;4137567;28;20581;-71
2021/09/17 05:45:47;;;;;;;7.93;6.47;;;13.50;99.90;;;13.16;100.00;101107.97;4135576;28;20038;-71
2021/09/17 05:47:48;;;;;;;7.90;6.03;;;13.50;99.90;;;13.21;100.00;101110.09;4124626;28;20034;-72
2021/09/17 05:49:49;;;;;;;8.07;7.18;;;13.50;99.90;;;13.15;100.00;101116.88;4139984;28;20061;-71
2021/09/17 05:51:50;;;;;;;9.75;6.30;;;13.50;99.90;;;13.25;100.00;101112.28;4140240;28;20058;-71
2021/09/17 05:53:51;;;;;;;8.57;6.20;;;13.60;99.90;;;13.32;100.00;101122.22;4151286;28;20112;-72
2021/09/17 05:55:52;;;;;;;7.90;6.20;;;13.60;99.90;;;13.36;100.00;101124.34;4151762;28;20034;-71
2021/09/17 05:57:56;;;;;;;7.78;6.47;;;13.60;99.90;;;13.35;100.00;101113.94;4152500;28;20025;-71
2021/09/17 05:59:57;;;;;;;7.78;6.43;;;13.70;99.90;;;13.35;100.00;101113.94;4151600;28;20037;-71
2021/09/17 06:01:59;;;;;;;8.18;6.20;;;13.70;99.90;;;13.45;100.00;101120.72;4119204;28;20027;-71
2021/09/17 06:04:00;;;;;;;10.43;5.75;;;13.80;99.90;;;13.47;100.00;101112.63;4136610;28;20102;-71
2021/09/17 06:06:01;;;;;;;11.65;5.78;;;13.90;99.90;;;13.47;100.00;101112.63;4135079;28;20062;-71
2021/09/17 06:08:03;;;;;;;6.65;4.97;;;13.90;99.90;;;13.49;100.00;101102.66;4135508;28;20093;-71
2021/09/17 06:10:05;;;;;;;7.57;4.68;;;13.90;99.90;;;13.54;100.00;101111.78;4135255;28;20026;-71
2021/09/17 06:12:07;;;;;;;5.05;4.53;;;13.90;99.90;;;13.68;100.00;101115.56;4124877;28;20062;-71
2021/09/17 06:14:08;;;;;;;6.90;5.03;;;14.00;99.90;;;13.70;100.00;101113.59;4136812;28;20081;-72
2021/09/17 06:16:09;;;;;;;6.88;4.55;;;14.00;99.90;;;13.71;100.00;101120.53;4135447;28;20034;-71
2021/09/17 06:18:10;;;;;;;4.57;4.15;;;14.00;99.90;;;13.72;100.00;101111.59;4136344;28;20030;-72
2021/09/17 06:20:13;;;;;;;6.07;3.65;;;14.10;99.90;;;13.77;100.00;101123.34;4146772;28;20064;-72
2021/09/17 06:22:14;;;;;;;6.47;4.35;;;14.10;99.90;;;13.76;100.00;101121.72;4149235;28;20662;-72
2021/09/17 06:24:15;;;;;;;8.38;4.47;;;14.20;99.90;;;13.77;100.00;101118.06;4150704;28;20086;-71
2021/09/17 06:26:19;;;;;;;6.63;4.78;;;14.20;99.90;;;13.84;100.00;101126.16;4153254;28;20516;-72
2021/09/17 06:28:20;;;;;;;6.50;4.60;;;14.30;99.90;;;13.89;100.00;101113.22;4153496;28;20402;-71
2021/09/17 06:30:23;;;;;;;9.77;5.00;;;14.30;99.90;;;13.99;100.00;101116.53;4154206;28;20033;-72
2021/09/17 06:32:24;;;;;;;6.35;4.90;;;14.40;99.90;;;14.08;100.00;101115.53;4154666;28;20523;-72
2021/09/17 06:34:25;;;;;;;4.97;3.88;;;14.40;99.90;;;14.14;100.00;101120.16;4136797;28;20041;-71
2021/09/17 06:36:26;;;;;;;26.08;5.85;;;14.50;99.90;;;14.14;100.00;101114.00;4155509;28;20497;-72
2021/09/17 06:38:27;;;;;;;7.85;4.80;;;14.60;99.90;;;14.24;100.00;101119.97;4152511;28;20088;-72
2021/09/17 06:40:29;;;;;;;10.45;5.43;;;14.60;99.90;;;14.23;100.00;101113.00;4141747;28;20035;-72
2021/09/17 06:42:30;;;;;;;8.00;4.63;;;14.70;99.90;;;14.36;100.00;101124.78;4153165;28;20030;-71
2021/09/17 06:44:31;;;;;;;8.75;5.47;;;14.80;99.90;;;14.40;100.00;101115.44;4144817;28;20504;-71
2021/09/17 06:46:32;;;;;;;11.57;5.55;;;14.90;99.90;;;14.48;100.00;101119.91;4145682;28;20469;-71
2021/09/17 06:48:33;;;;;;;6.28;4.65;;;14.90;99.90;;;14.56;100.00;101119.03;4133270;28;20486;-72
2021/09/17 06:50:35;;;;;;;6.18;4.10;;;15.00;99.90;;;14.70;100.00;101121.78;4152912;28;20596;-71
2021/09/17 06:52:36;;;;;;;6.10;4.70;;;15.10;99.90;;;14.76;100.00;101128.22;4131685;28;20030;-72
2021/09/17 06:54:37;;;;;;;11.45;5.78;;;15.20;99.90;;;14.71;100.00;101119.97;4144168;28;20025;-72
2021/09/17 06:56:39;;;;;;;8.82;4.90;;;15.30;99.90;;;14.76;100.00;101120.25;4142435;28;20066;-74
2021/09/17 06:58:40;;;;;;;4.45;3.67;;;15.30;99.90;;;14.72;100.00;101105.69;4135281;28;20129;-82
2021/09/17 07:00:41;;;;;;;5.00;4.13;;;15.40;99.90;;;14.81;100.00;101100.16;4153964;28;20083;-77
2021/09/17 07:02:43;;;;;;;7.05;4.35;;;15.40;99.90;;;14.90;100.00;101111.59;4145472;28;20022;-77
2021/09/17 07:04:45;;;;;;;3.85;3.47;;;15.50;99.90;;;14.97;100.00;101115.16;4138630;28;20034;-77
2021/09/17 07:06:46;;;;;;;5.75;4.07;;;15.60;99.90;;;15.02;100.00;101119.97;4137487;28;20031;-76
2021/09/17 07:08:47;;;;;;;6.65;4.13;;;15.60;99.90;;;15.06;100.00;101119.44;4142790;28;20026;-78
2021/09/17 07:10:49;;;;;;;4.97;3.40;;;15.70;99.90;;;15.08;100.00;101113.97;4146816;28;20037;-76
2021/09/17 07:12:50;;;;;;;3.53;3.22;;;15.70;99.90;;;15.17;100.00;101120.88;4136660;28;20555;-75
2021/09/17 07:14:51;;;;;;;3.38;2.80;;;15.80;99.90;;;15.11;100.00;101114.44;4138635;28;20498;-75
2021/09/17 07:16:52;;;;;;;3.28;2.97;;;15.80;99.90;;;15.06;100.00;101114.13;4125619;28;20061;-75
2021/09/17 07:18:53;;;;;;;5.75;3.15;;;15.80;99.90;;;15.09;100.00;101126.22;4137423;28;20081;-75
2021/09/17 07:20:55;;;;;;;2.80;2.35;;;15.80;99.90;;;15.11;100.00;101122.41;4131526;28;20413;-75
2021/09/17 07:22:55;;;;;;;3.60;2.70;;;15.90;99.90;;;15.27;100.00;101129.44;4140662;28;20026;-75
2021/09/17 07:24:56;;;;;;;3.28;2.40;;;15.90;99.90;;;15.30;100.00;101119.28;4152643;28;20116;-75
2021/09/17 07:26:58;;;;;;;3.17;2.88;;;16.00;99.90;;;15.44;100.00;101118.50;4152537;28;20036;-75
2021/09/17 07:28:58;;;;;;;2.95;2.65;;;16.10;99.90;;;15.47;100.00;101112.84;4142200;28;20033;-75
2021/09/17 07:31:00;;;;;;;2.95;2.70;;;16.20;99.90;;;15.59;100.00;101112.44;4138670;28;20030;-75
2021/09/17 07:33:02;;;;;;;6.03;2.88;;;16.30;99.90;;;15.69;100.00;101120.97;4141338;28;20034;-75
2021/09/17 07:35:05;;;;;;;10.43;2.80;;;16.50;99.90;;;15.78;100.00;101117.25;4141453;28;20033;-77
2021/09/17 07:37:06;;;;;;;23.88;15.85;;;16.50;99.90;;;15.76;100.00;101117.44;4130860;28;20494;-77
2021/09/17 07:39:07;;;;;;;8.88;3.50;;;16.60;99.90;;;15.67;100.00;101128.31;4136468;28;20513;-76
2021/09/17 07:41:08;;;;;;;12.15;3.83;;;16.60;99.90;;;15.70;100.00;101127.97;4140811;28;20034;-76
2021/09/17 07:43:09;;;;;;;9.32;3.55;;;16.60;99.90;;;15.69;100.00;101124.47;4144247;28;20061;-77
2021/09/17 07:45:11;;;;;;;5.70;2.90;;;16.60;99.90;;;15.75;100.00;101122.91;4120132;28;20507;-77
2021/09/17 07:47:12;;;;;;;5.20;3.95;;;16.70;99.90;;;15.96;100.00;101120.41;4151567;28;20065;-76
2021/09/17 07:49:13;;;;;;;5.88;4.07;;;16.70;99.90;;;16.02;100.00;101117.84;4131344;28;20054;-76
2021/09/17 07:51:14;;;;;;;16.65;4.57;;;16.80;99.90;;;15.98;100.00;101129.00;4135940;28;20034;-77
2021/09/17 07:53:15;;;;;;;7.28;3.90;;;16.90;99.90;;;15.69;100.00;101120.97;4135886;28;20100;-76
2021/09/17 07:55:17;;;;;;;6.80;4.38;;;16.90;99.90;;;15.87;100.00;101122.31;4135765;28;20081;-76
2021/09/17 07:57:17;;;;;;;8.07;4.00;;;16.90;99.90;;;15.93;100.00;101126.06;4135701;28;20049;-77
2021/09/17 07:59:19;;;;;;;4.93;3.70;;;16.90;99.90;;;15.96;100.00;101121.22;4119640;28;20035;-77
2021/09/17 08:01:20;;;;;;;6.15;4.00;;;16.90;99.90;;;16.08;100.00;101118.94;4136962;28;20037;-76
2021/09/17 08:03:22;;;;;;;5.10;3.80;;;17.00;99.90;;;16.22;100.00;101115.44;4135683;28;20022;-76
2021/09/17 08:05:23;;;;;;;5.38;4.25;;;17.00;99.90;;;16.16;100.00;101118.84;4135942;28;20030;-77
2021/09/17 08:07:24;;;;;;;5.78;4.20;;;17.10;99.90;;;15.85;100.00;101105.72;4135753;28;20038;-76
2021/09/17 08:09:25;;;;;;;3.92;3.53;;;17.00;99.90;;;16.03;100.00;101105.38;4135773;28;20052;-76
2021/09/17 08:11:26;;;;;;;6.72;4.13;;;17.00;99.90;;;15.96;100.00;101115.06;4135627;28;20045;-76
2021/09/17 08:13:27;;;;;;;5.93;4.60;;;17.00;99.90;;;16.12;100.00;101114.09;4135467;28;20042;-76
2021/09/17 08:15:28;;;;;;;3.83;3.42;;;17.00;99.90;;;16.26;100.00;101114.09;4135657;28;20105;-76
2021/09/17 08:17:29;;;;;;;6.50;4.30;;;17.10;99.90;;;16.25;100.00;101104.44;4135499;28;20294;-76